sensor_id;sensor_type;location;lat;lon;timestamp;P1;durP1;ratioP1;P2;durP2;ratioP2
75687;SDS011;64300;45.034;38.910;2023-03-09T00:02:10;5.80;;;2.60;;
75687;SDS011;64300;45.034;38.910;2023-03-09T00:04:38;5.35;;;2.60;;
75687;SDS011;64300;45.034;38.910;2023-03-09T00:07:04;8.45;;;2.88;;
75687;SDS011;64300;45.034;38.910;2023-03-09T00:09:30;6.53;;;2.58;;
75687;SDS011;64300;45.034;38.910;2023-03-09T00:11:56;5.30;;;2.55;;
75687;SDS011;64300;45.034;38.910;2023-03-09T00:14:21;5.53;;;2.40;;
75687;SDS011;64300;45.034;38.910;2023-03-09T00:16:47;5.15;;;2.35;;
75687;SDS011;64300;45.034;38.910;2023-03-09T00:19:14;5.32;;;2.88;;
75687;SDS011;64300;45.034;38.910;2023-03-09T00:21:46;6.32;;;3.10;;
75687;SDS011;64300;45.034;38.910;2023-03-09T00:24:17;5.45;;;2.60;;
75687;SDS011;64300;45.034;38.910;2023-03-09T00:26:49;7.53;;;2.90;;
75687;SDS011;64300;45.034;38.910;2023-03-09T00:29:20;5.78;;;2.47;;
75687;SDS011;64300;45.034;38.910;2023-03-09T00:31:46;8.85;;;2.78;;
75687;SDS011;64300;45.034;38.910;2023-03-09T00:34:14;6.28;;;2.80;;
75687;SDS011;64300;45.034;38.910;2023-03-09T00:36:41;5.60;;;2.80;;
75687;SDS011;64300;45.034;38.910;2023-03-09T00:39:07;6.90;;;2.47;;
75687;SDS011;64300;45.034;38.910;2023-03-09T00:41:34;5.22;;;2.53;;
75687;SDS011;64300;45.034;38.910;2023-03-09T00:44:00;8.35;;;2.60;;
75687;SDS011;64300;45.034;38.910;2023-03-09T00:46:28;6.10;;;2.50;;
75687;SDS011;64300;45.034;38.910;2023-03-09T00:48:54;8.52;;;3.55;;
75687;SDS011;64300;45.034;38.910;2023-03-09T00:51:20;6.03;;;3.28;;
75687;SDS011;64300;45.034;38.910;2023-03-09T00:53:46;7.68;;;2.63;;
75687;SDS011;64300;45.034;38.910;2023-03-09T00:56:17;5.20;;;2.70;;
75687;SDS011;64300;45.034;38.910;2023-03-09T00:58:46;5.25;;;2.60;;
75687;SDS011;64300;45.034;38.910;2023-03-09T01:01:15;8.43;;;3.13;;
75687;SDS011;64300;45.034;38.910;2023-03-09T01:03:41;6.68;;;2.47;;
75687;SDS011;64300;45.034;38.910;2023-03-09T01:06:08;4.22;;;2.28;;
75687;SDS011;64300;45.034;38.910;2023-03-09T01:08:34;5.18;;;2.67;;
75687;SDS011;64300;45.034;38.910;2023-03-09T01:11:00;4.30;;;2.20;;
75687;SDS011;64300;45.034;38.910;2023-03-09T01:13:30;6.53;;;2.95;;
75687;SDS011;64300;45.034;38.910;2023-03-09T01:15:56;4.63;;;2.53;;
75687;SDS011;64300;45.034;38.910;2023-03-09T01:18:21;5.80;;;2.65;;
75687;SDS011;64300;45.034;38.910;2023-03-09T01:20:47;6.50;;;2.92;;
75687;SDS011;64300;45.034;38.910;2023-03-09T01:23:13;5.70;;;2.55;;
75687;SDS011;64300;45.034;38.910;2023-03-09T01:25:39;5.43;;;2.60;;
75687;SDS011;64300;45.034;38.910;2023-03-09T01:28:06;7.05;;;3.05;;
75687;SDS011;64300;45.034;38.910;2023-03-09T01:30:32;5.35;;;2.78;;
75687;SDS011;64300;45.034;38.910;2023-03-09T01:32:58;5.35;;;2.63;;
75687;SDS011;64300;45.034;38.910;2023-03-09T01:35:24;5.32;;;2.38;;
75687;SDS011;64300;45.034;38.910;2023-03-09T01:37:50;7.75;;;2.80;;
75687;SDS011;64300;45.034;38.910;2023-03-09T01:40:18;7.03;;;2.38;;
75687;SDS011;64300;45.034;38.910;2023-03-09T01:47:47;5.90;;;3.03;;
75687;SDS011;64300;45.034;38.910;2023-03-09T01:50:14;4.90;;;2.63;;
75687;SDS011;64300;45.034;38.910;2023-03-09T01:52:44;5.97;;;3.17;;
75687;SDS011;64300;45.034;38.910;2023-03-09T01:55:14;4.80;;;2.70;;
75687;SDS011;64300;45.034;38.910;2023-03-09T01:57:48;5.20;;;2.72;;
75687;SDS011;64300;45.034;38.910;2023-03-09T02:00:20;5.88;;;2.83;;
75687;SDS011;64300;45.034;38.910;2023-03-09T02:03:03;6.07;;;2.63;;
75687;SDS011;64300;45.034;38.910;2023-03-09T02:05:36;5.25;;;2.70;;
75687;SDS011;64300;45.034;38.910;2023-03-09T02:08:04;6.22;;;3.03;;
75687;SDS011;64300;45.034;38.910;2023-03-09T02:10:35;6.47;;;3.03;;
75687;SDS011;64300;45.034;38.910;2023-03-09T02:13:08;7.90;;;2.95;;
75687;SDS011;64300;45.034;38.910;2023-03-09T02:15:38;8.27;;;3.20;;
75687;SDS011;64300;45.034;38.910;2023-03-09T02:18:05;6.20;;;2.67;;
75687;SDS011;64300;45.034;38.910;2023-03-09T02:21:14;6.63;;;3.25;;
75687;SDS011;64300;45.034;38.910;2023-03-09T02:23:31;5.35;;;2.90;;
75687;SDS011;64300;45.034;38.910;2023-03-09T02:26:17;6.28;;;3.30;;
75687;SDS011;64300;45.034;38.910;2023-03-09T02:28:56;6.40;;;2.83;;
75687;SDS011;64300;45.034;38.910;2023-03-09T02:31:23;6.80;;;3.22;;
75687;SDS011;64300;45.034;38.910;2023-03-09T02:33:50;6.50;;;3.30;;
75687;SDS011;64300;45.034;38.910;2023-03-09T02:36:16;7.68;;;3.40;;
75687;SDS011;64300;45.034;38.910;2023-03-09T02:38:44;6.88;;;3.30;;
75687;SDS011;64300;45.034;38.910;2023-03-09T02:41:10;5.63;;;2.80;;
75687;SDS011;64300;45.034;38.910;2023-03-09T02:43:43;8.77;;;3.70;;
75687;SDS011;64300;45.034;38.910;2023-03-09T02:46:18;6.50;;;3.20;;
75687;SDS011;64300;45.034;38.910;2023-03-09T02:48:44;5.95;;;3.30;;
75687;SDS011;64300;45.034;38.910;2023-03-09T02:51:10;4.90;;;2.90;;
75687;SDS011;64300;45.034;38.910;2023-03-09T02:53:36;5.30;;;2.45;;
75687;SDS011;64300;45.034;38.910;2023-03-09T02:56:04;5.82;;;2.90;;
75687;SDS011;64300;45.034;38.910;2023-03-09T02:58:32;6.47;;;2.85;;
75687;SDS011;64300;45.034;38.910;2023-03-09T03:00:59;6.45;;;3.50;;
75687;SDS011;64300;45.034;38.910;2023-03-09T03:03:28;6.05;;;3.33;;
75687;SDS011;64300;45.034;38.910;2023-03-09T03:05:54;5.85;;;2.63;;
75687;SDS011;64300;45.034;38.910;2023-03-09T03:08:20;6.15;;;2.83;;
75687;SDS011;64300;45.034;38.910;2023-03-09T03:10:47;6.20;;;2.92;;
75687;SDS011;64300;45.034;38.910;2023-03-09T03:13:13;6.28;;;3.40;;
75687;SDS011;64300;45.034;38.910;2023-03-09T03:15:39;6.45;;;2.85;;
75687;SDS011;64300;45.034;38.910;2023-03-09T03:18:04;5.65;;;3.08;;
75687;SDS011;64300;45.034;38.910;2023-03-09T03:20:32;6.68;;;2.95;;
75687;SDS011;64300;45.034;38.910;2023-03-09T03:22:59;5.75;;;2.65;;
75687;SDS011;64300;45.034;38.910;2023-03-09T03:25:34;5.95;;;3.03;;
75687;SDS011;64300;45.034;38.910;2023-03-09T03:28:02;5.05;;;2.83;;
75687;SDS011;64300;45.034;38.910;2023-03-09T03:30:29;5.63;;;2.88;;
75687;SDS011;64300;45.034;38.910;2023-03-09T03:32:56;5.97;;;3.22;;
75687;SDS011;64300;45.034;38.910;2023-03-09T03:35:27;4.85;;;2.70;;
75687;SDS011;64300;45.034;38.910;2023-03-09T03:37:53;8.25;;;2.95;;
75687;SDS011;64300;45.034;38.910;2023-03-09T03:40:21;5.35;;;3.08;;
75687;SDS011;64300;45.034;38.910;2023-03-09T03:42:51;6.25;;;3.08;;
75687;SDS011;64300;45.034;38.910;2023-03-09T03:45:18;4.50;;;2.63;;
75687;SDS011;64300;45.034;38.910;2023-03-09T03:47:45;5.82;;;3.13;;
75687;SDS011;64300;45.034;38.910;2023-03-09T03:50:11;7.70;;;3.17;;
75687;SDS011;64300;45.034;38.910;2023-03-09T03:52:54;6.40;;;3.00;;
75687;SDS011;64300;45.034;38.910;2023-03-09T03:55:20;6.05;;;2.90;;
75687;SDS011;64300;45.034;38.910;2023-03-09T03:57:46;6.28;;;2.95;;
75687;SDS011;64300;45.034;38.910;2023-03-09T04:00:12;7.88;;;3.13;;
75687;SDS011;64300;45.034;38.910;2023-03-09T04:02:40;5.60;;;3.08;;
75687;SDS011;64300;45.034;38.910;2023-03-09T04:05:14;6.28;;;3.10;;
75687;SDS011;64300;45.034;38.910;2023-03-09T04:07:43;5.53;;;3.00;;
75687;SDS011;64300;45.034;38.910;2023-03-09T04:10:10;6.63;;;3.42;;
75687;SDS011;64300;45.034;38.910;2023-03-09T04:12:40;7.63;;;3.30;;
75687;SDS011;64300;45.034;38.910;2023-03-09T04:15:07;9.05;;;3.38;;
75687;SDS011;64300;45.034;38.910;2023-03-09T04:17:33;5.80;;;3.22;;
75687;SDS011;64300;45.034;38.910;2023-03-09T04:19:59;8.65;;;3.97;;
75687;SDS011;64300;45.034;38.910;2023-03-09T04:22:26;6.60;;;3.53;;
75687;SDS011;64300;45.034;38.910;2023-03-09T04:24:52;6.15;;;3.28;;
75687;SDS011;64300;45.034;38.910;2023-03-09T04:27:18;7.97;;;3.72;;
75687;SDS011;64300;45.034;38.910;2023-03-09T04:30:00;9.63;;;3.42;;
75687;SDS011;64300;45.034;38.910;2023-03-09T04:32:30;6.50;;;3.53;;
75687;SDS011;64300;45.034;38.910;2023-03-09T04:35:14;7.68;;;3.38;;
75687;SDS011;64300;45.034;38.910;2023-03-09T04:37:43;6.78;;;3.25;;
75687;SDS011;64300;45.034;38.910;2023-03-09T04:40:10;6.95;;;3.63;;
75687;SDS011;64300;45.034;38.910;2023-03-09T04:42:38;10.05;;;3.30;;
75687;SDS011;64300;45.034;38.910;2023-03-09T04:45:04;6.93;;;3.88;;
75687;SDS011;64300;45.034;38.910;2023-03-09T04:47:31;6.65;;;3.45;;
75687;SDS011;64300;45.034;38.910;2023-03-09T04:49:57;8.27;;;3.28;;
75687;SDS011;64300;45.034;38.910;2023-03-09T04:52:25;6.15;;;3.45;;
75687;SDS011;64300;45.034;38.910;2023-03-09T04:54:53;8.13;;;3.53;;
75687;SDS011;64300;45.034;38.910;2023-03-09T04:57:20;9.57;;;3.13;;
75687;SDS011;64300;45.034;38.910;2023-03-09T04:59:50;7.10;;;3.22;;
75687;SDS011;64300;45.034;38.910;2023-03-09T05:02:16;7.40;;;3.40;;
75687;SDS011;64300;45.034;38.910;2023-03-09T05:04:45;7.13;;;3.28;;
75687;SDS011;64300;45.034;38.910;2023-03-09T05:07:11;9.60;;;3.40;;
75687;SDS011;64300;45.034;38.910;2023-03-09T05:09:37;5.22;;;2.85;;
75687;SDS011;64300;45.034;38.910;2023-03-09T05:12:04;7.43;;;3.55;;
75687;SDS011;64300;45.034;38.910;2023-03-09T05:14:32;12.05;;;3.10;;
75687;SDS011;64300;45.034;38.910;2023-03-09T05:16:59;7.22;;;3.50;;
75687;SDS011;64300;45.034;38.910;2023-03-09T05:19:26;6.85;;;3.15;;
75687;SDS011;64300;45.034;38.910;2023-03-09T05:21:55;7.07;;;3.42;;
75687;SDS011;64300;45.034;38.910;2023-03-09T05:24:21;9.05;;;3.90;;
75687;SDS011;64300;45.034;38.910;2023-03-09T05:26:47;6.45;;;3.53;;
75687;SDS011;64300;45.034;38.910;2023-03-09T05:29:15;7.70;;;3.83;;
75687;SDS011;64300;45.034;38.910;2023-03-09T05:31:41;7.32;;;3.65;;
75687;SDS011;64300;45.034;38.910;2023-03-09T05:34:07;6.72;;;3.58;;
75687;SDS011;64300;45.034;38.910;2023-03-09T05:36:33;6.70;;;3.42;;
75687;SDS011;64300;45.034;38.910;2023-03-09T05:39:06;8.90;;;3.80;;
75687;SDS011;64300;45.034;38.910;2023-03-09T05:41:32;7.53;;;4.30;;
75687;SDS011;64300;45.034;38.910;2023-03-09T05:44:11;7.10;;;3.40;;
75687;SDS011;64300;45.034;38.910;2023-03-09T05:46:49;7.28;;;3.42;;
75687;SDS011;64300;45.034;38.910;2023-03-09T05:49:15;11.32;;;3.92;;
75687;SDS011;64300;45.034;38.910;2023-03-09T05:51:41;7.70;;;3.55;;
75687;SDS011;64300;45.034;38.910;2023-03-09T05:54:07;7.00;;;3.87;;
75687;SDS011;64300;45.034;38.910;2023-03-09T05:56:36;6.82;;;3.83;;
75687;SDS011;64300;45.034;38.910;2023-03-09T05:59:04;7.57;;;3.80;;
75687;SDS011;64300;45.034;38.910;2023-03-09T06:01:30;6.60;;;3.72;;
75687;SDS011;64300;45.034;38.910;2023-03-09T06:04:22;8.35;;;3.75;;
75687;SDS011;64300;45.034;38.910;2023-03-09T06:06:56;9.02;;;3.92;;
75687;SDS011;64300;45.034;38.910;2023-03-09T06:09:28;12.65;;;3.67;;
75687;SDS011;64300;45.034;38.910;2023-03-09T06:11:55;8.10;;;3.72;;
75687;SDS011;64300;45.034;38.910;2023-03-09T06:14:24;8.27;;;3.60;;
75687;SDS011;64300;45.034;38.910;2023-03-09T06:16:51;7.82;;;3.60;;
75687;SDS011;64300;45.034;38.910;2023-03-09T06:19:18;8.82;;;3.80;;
75687;SDS011;64300;45.034;38.910;2023-03-09T06:21:44;8.07;;;3.92;;
75687;SDS011;64300;45.034;38.910;2023-03-09T06:24:11;5.95;;;3.60;;
75687;SDS011;64300;45.034;38.910;2023-03-09T06:26:37;8.50;;;3.47;;
75687;SDS011;64300;45.034;38.910;2023-03-09T06:29:09;9.95;;;3.60;;
75687;SDS011;64300;45.034;38.910;2023-03-09T06:31:39;6.93;;;3.50;;
75687;SDS011;64300;45.034;38.910;2023-03-09T06:34:06;6.63;;;3.58;;
75687;SDS011;64300;45.034;38.910;2023-03-09T06:36:32;8.90;;;3.72;;
75687;SDS011;64300;45.034;38.910;2023-03-09T06:39:00;7.63;;;4.03;;
75687;SDS011;64300;45.034;38.910;2023-03-09T06:41:31;6.03;;;3.53;;
75687;SDS011;64300;45.034;38.910;2023-03-09T06:44:17;7.20;;;3.83;;
75687;SDS011;64300;45.034;38.910;2023-03-09T06:46:45;15.27;;;3.92;;
75687;SDS011;64300;45.034;38.910;2023-03-09T06:49:12;11.73;;;3.90;;
75687;SDS011;64300;45.034;38.910;2023-03-09T06:51:38;13.77;;;4.15;;
75687;SDS011;64300;45.034;38.910;2023-03-09T06:54:04;11.57;;;4.38;;
75687;SDS011;64300;45.034;38.910;2023-03-09T06:56:36;7.07;;;4.03;;
75687;SDS011;64300;45.034;38.910;2023-03-09T06:59:01;12.85;;;3.80;;
75687;SDS011;64300;45.034;38.910;2023-03-09T07:01:28;11.55;;;4.07;;
75687;SDS011;64300;45.034;38.910;2023-03-09T07:03:57;9.90;;;3.92;;
75687;SDS011;64300;45.034;38.910;2023-03-09T07:06:23;9.82;;;3.63;;
75687;SDS011;64300;45.034;38.910;2023-03-09T07:08:49;10.30;;;3.65;;
75687;SDS011;64300;45.034;38.910;2023-03-09T07:11:15;10.73;;;3.58;;
75687;SDS011;64300;45.034;38.910;2023-03-09T07:13:41;5.63;;;3.22;;
75687;SDS011;64300;45.034;38.910;2023-03-09T07:16:07;7.15;;;3.13;;
75687;SDS011;64300;45.034;38.910;2023-03-09T07:18:33;7.35;;;3.40;;
75687;SDS011;64300;45.034;38.910;2023-03-09T07:21:00;7.07;;;3.97;;
75687;SDS011;64300;45.034;38.910;2023-03-09T07:23:28;6.35;;;3.05;;
75687;SDS011;64300;45.034;38.910;2023-03-09T07:25:58;4.90;;;2.83;;
75687;SDS011;64300;45.034;38.910;2023-03-09T07:28:28;5.18;;;3.03;;
75687;SDS011;64300;45.034;38.910;2023-03-09T07:30:54;4.88;;;3.05;;
75687;SDS011;64300;45.034;38.910;2023-03-09T07:33:20;8.95;;;3.85;;
75687;SDS011;64300;45.034;38.910;2023-03-09T07:35:46;5.93;;;2.88;;
75687;SDS011;64300;45.034;38.910;2023-03-09T07:38:12;7.03;;;2.92;;
75687;SDS011;64300;45.034;38.910;2023-03-09T07:40:38;5.90;;;2.90;;
75687;SDS011;64300;45.034;38.910;2023-03-09T07:43:04;5.32;;;2.83;;
75687;SDS011;64300;45.034;38.910;2023-03-09T07:45:50;5.25;;;2.83;;
75687;SDS011;64300;45.034;38.910;2023-03-09T07:48:16;5.75;;;2.67;;
75687;SDS011;64300;45.034;38.910;2023-03-09T07:50:43;6.65;;;2.70;;
75687;SDS011;64300;45.034;38.910;2023-03-09T07:53:09;6.78;;;3.10;;
75687;SDS011;64300;45.034;38.910;2023-03-09T07:55:36;5.38;;;2.50;;
75687;SDS011;64300;45.034;38.910;2023-03-09T07:58:03;6.45;;;2.45;;
75687;SDS011;64300;45.034;38.910;2023-03-09T08:00:29;5.00;;;2.28;;
75687;SDS011;64300;45.034;38.910;2023-03-09T08:02:57;4.07;;;2.47;;
75687;SDS011;64300;45.034;38.910;2023-03-09T08:05:24;4.28;;;2.20;;
75687;SDS011;64300;45.034;38.910;2023-03-09T08:07:52;3.80;;;2.13;;
75687;SDS011;64300;45.034;38.910;2023-03-09T08:10:19;4.25;;;2.30;;
75687;SDS011;64300;45.034;38.910;2023-03-09T08:12:48;7.82;;;2.20;;
75687;SDS011;64300;45.034;38.910;2023-03-09T08:15:15;5.43;;;2.55;;
75687;SDS011;64300;45.034;38.910;2023-03-09T08:17:44;3.20;;;1.90;;
75687;SDS011;64300;45.034;38.910;2023-03-09T08:20:10;4.13;;;2.08;;
75687;SDS011;64300;45.034;38.910;2023-03-09T08:22:36;6.20;;;2.35;;
75687;SDS011;64300;45.034;38.910;2023-03-09T08:25:04;5.88;;;1.90;;
75687;SDS011;64300;45.034;38.910;2023-03-09T08:27:36;4.82;;;2.20;;
75687;SDS011;64300;45.034;38.910;2023-03-09T08:30:11;6.30;;;1.92;;
75687;SDS011;64300;45.034;38.910;2023-03-09T08:32:37;5.32;;;2.20;;
75687;SDS011;64300;45.034;38.910;2023-03-09T08:35:04;6.95;;;2.28;;
75687;SDS011;64300;45.034;38.910;2023-03-09T08:37:30;6.20;;;2.08;;
75687;SDS011;64300;45.034;38.910;2023-03-09T08:39:56;5.35;;;2.20;;
75687;SDS011;64300;45.034;38.910;2023-03-09T08:42:22;3.90;;;2.33;;
75687;SDS011;64300;45.034;38.910;2023-03-09T08:44:48;3.75;;;2.15;;
75687;SDS011;64300;45.034;38.910;2023-03-09T08:47:13;4.65;;;2.10;;
75687;SDS011;64300;45.034;38.910;2023-03-09T08:49:39;5.03;;;2.30;;
75687;SDS011;64300;45.034;38.910;2023-03-09T08:52:07;5.35;;;2.30;;
75687;SDS011;64300;45.034;38.910;2023-03-09T08:54:34;6.20;;;2.10;;
75687;SDS011;64300;45.034;38.910;2023-03-09T08:57:00;5.45;;;2.25;;
75687;SDS011;64300;45.034;38.910;2023-03-09T09:02:15;8.00;;;2.33;;
75687;SDS011;64300;45.034;38.910;2023-03-09T09:04:41;6.45;;;2.35;;
75687;SDS011;64300;45.034;38.910;2023-03-09T09:07:08;5.07;;;2.30;;
75687;SDS011;64300;45.034;38.910;2023-03-09T09:09:51;5.88;;;2.10;;
75687;SDS011;64300;45.034;38.910;2023-03-09T09:12:17;4.65;;;2.10;;
75687;SDS011;64300;45.034;38.910;2023-03-09T09:14:49;5.00;;;1.98;;
75687;SDS011;64300;45.034;38.910;2023-03-09T09:17:15;7.45;;;2.50;;
75687;SDS011;64300;45.034;38.910;2023-03-09T09:19:41;5.55;;;2.13;;
75687;SDS011;64300;45.034;38.910;2023-03-09T09:22:07;4.97;;;2.05;;
75687;SDS011;64300;45.034;38.910;2023-03-09T09:24:35;5.65;;;2.20;;
75687;SDS011;64300;45.034;38.910;2023-03-09T09:27:02;7.45;;;2.40;;
75687;SDS011;64300;45.034;38.910;2023-03-09T09:29:34;4.28;;;2.30;;
75687;SDS011;64300;45.034;38.910;2023-03-09T09:32:02;7.93;;;2.65;;
75687;SDS011;64300;45.034;38.910;2023-03-09T09:34:30;6.45;;;2.50;;
75687;SDS011;64300;45.034;38.910;2023-03-09T09:36:58;5.22;;;2.53;;
75687;SDS011;64300;45.034;38.910;2023-03-09T09:39:29;7.28;;;2.10;;
75687;SDS011;64300;45.034;38.910;2023-03-09T09:41:58;4.55;;;2.10;;
75687;SDS011;64300;45.034;38.910;2023-03-09T09:44:52;9.95;;;2.20;;
75687;SDS011;64300;45.034;38.910;2023-03-09T09:47:21;7.28;;;2.10;;
75687;SDS011;64300;45.034;38.910;2023-03-09T09:49:54;4.25;;;2.00;;
75687;SDS011;64300;45.034;38.910;2023-03-09T10:04:09;6.38;;;2.30;;
75687;SDS011;64300;45.034;38.910;2023-03-09T10:07:10;4.75;;;2.22;;
75687;SDS011;64300;45.034;38.910;2023-03-09T10:09:50;7.50;;;2.50;;
75687;SDS011;64300;45.034;38.910;2023-03-09T10:12:20;8.45;;;2.00;;
75687;SDS011;64300;45.034;38.910;2023-03-09T10:15:09;4.30;;;1.92;;
75687;SDS011;64300;45.034;38.910;2023-03-09T10:17:48;6.43;;;2.00;;
75687;SDS011;64300;45.034;38.910;2023-03-09T10:28:42;3.20;;;1.83;;
75687;SDS011;64300;45.034;38.910;2023-03-09T10:33:45;4.78;;;1.80;;
75687;SDS011;64300;45.034;38.910;2023-03-09T10:36:23;5.88;;;1.88;;
75687;SDS011;64300;45.034;38.910;2023-03-09T10:38:59;5.70;;;2.03;;
75687;SDS011;64300;45.034;38.910;2023-03-09T10:43:55;4.18;;;1.77;;
75687;SDS011;64300;45.034;38.910;2023-03-09T10:46:23;4.60;;;1.90;;
75687;SDS011;64300;45.034;38.910;2023-03-09T10:49:07;4.80;;;2.25;;
75687;SDS011;64300;45.034;38.910;2023-03-09T10:51:38;4.57;;;2.00;;
75687;SDS011;64300;45.034;38.910;2023-03-09T10:59:14;6.32;;;2.58;;
75687;SDS011;64300;45.034;38.910;2023-03-09T11:01:42;6.32;;;1.80;;
75687;SDS011;64300;45.034;38.910;2023-03-09T11:07:18;7.85;;;2.22;;
75687;SDS011;64300;45.034;38.910;2023-03-09T11:09:48;5.40;;;1.90;;
75687;SDS011;64300;45.034;38.910;2023-03-09T11:14:48;3.38;;;1.52;;
75687;SDS011;64300;45.034;38.910;2023-03-09T11:23:01;7.57;;;2.00;;
75687;SDS011;64300;45.034;38.910;2023-03-09T11:25:42;5.68;;;2.35;;
75687;SDS011;64300;45.034;38.910;2023-03-09T11:31:13;5.85;;;2.53;;
75687;SDS011;64300;45.034;38.910;2023-03-09T11:33:43;4.32;;;2.20;;
75687;SDS011;64300;45.034;38.910;2023-03-09T11:36:16;4.95;;;2.40;;
75687;SDS011;64300;45.034;38.910;2023-03-09T11:38:46;5.75;;;1.90;;
75687;SDS011;64300;45.034;38.910;2023-03-09T11:41:33;3.88;;;2.13;;
75687;SDS011;64300;45.034;38.910;2023-03-09T11:44:02;6.63;;;2.35;;
75687;SDS011;64300;45.034;38.910;2023-03-09T11:46:38;6.60;;;2.50;;
75687;SDS011;64300;45.034;38.910;2023-03-09T11:49:07;6.70;;;2.25;;
75687;SDS011;64300;45.034;38.910;2023-03-09T11:51:41;6.28;;;2.42;;
75687;SDS011;64300;45.034;38.910;2023-03-09T11:56:47;5.20;;;2.30;;
75687;SDS011;64300;45.034;38.910;2023-03-09T11:59:17;6.50;;;2.45;;
75687;SDS011;64300;45.034;38.910;2023-03-09T12:04:24;5.28;;;2.55;;
75687;SDS011;64300;45.034;38.910;2023-03-09T12:09:42;4.40;;;2.30;;
75687;SDS011;64300;45.034;38.910;2023-03-09T12:14:55;4.50;;;2.10;;
75687;SDS011;64300;45.034;38.910;2023-03-09T12:17:35;4.28;;;2.15;;
75687;SDS011;64300;45.034;38.910;2023-03-09T12:20:05;7.63;;;2.15;;
75687;SDS011;64300;45.034;38.910;2023-03-09T12:22:38;4.30;;;2.03;;
75687;SDS011;64300;45.034;38.910;2023-03-09T12:25:05;5.38;;;2.20;;
75687;SDS011;64300;45.034;38.910;2023-03-09T12:27:44;5.85;;;2.20;;
75687;SDS011;64300;45.034;38.910;2023-03-09T12:30:20;6.55;;;2.10;;
75687;SDS011;64300;45.034;38.910;2023-03-09T12:32:49;3.95;;;2.03;;
75687;SDS011;64300;45.034;38.910;2023-03-09T12:42:53;8.50;;;2.33;;
75687;SDS011;64300;45.034;38.910;2023-03-09T12:45:26;4.28;;;1.90;;
75687;SDS011;64300;45.034;38.910;2023-03-09T12:48:00;4.53;;;2.03;;
75687;SDS011;64300;45.034;38.910;2023-03-09T12:53:21;5.95;;;2.50;;
75687;SDS011;64300;45.034;38.910;2023-03-09T12:56:00;4.80;;;2.58;;
75687;SDS011;64300;45.034;38.910;2023-03-09T13:03:46;6.47;;;2.35;;
75687;SDS011;64300;45.034;38.910;2023-03-09T13:11:40;4.95;;;2.60;;
75687;SDS011;64300;45.034;38.910;2023-03-09T13:16:59;7.38;;;2.72;;
75687;SDS011;64300;45.034;38.910;2023-03-09T13:27:06;6.40;;;2.28;;
75687;SDS011;64300;45.034;38.910;2023-03-09T13:29:39;6.20;;;2.50;;
75687;SDS011;64300;45.034;38.910;2023-03-09T13:32:17;14.68;;;2.45;;
75687;SDS011;64300;45.034;38.910;2023-03-09T13:34:54;6.50;;;2.60;;
75687;SDS011;64300;45.034;38.910;2023-03-09T13:37:25;4.93;;;2.40;;
75687;SDS011;64300;45.034;38.910;2023-03-09T13:40:40;6.30;;;2.55;;
75687;SDS011;64300;45.034;38.910;2023-03-09T13:42:49;6.78;;;3.00;;
75687;SDS011;64300;45.034;38.910;2023-03-09T13:45:18;6.05;;;2.72;;
75687;SDS011;64300;45.034;38.910;2023-03-09T13:47:50;7.18;;;3.00;;
75687;SDS011;64300;45.034;38.910;2023-03-09T13:50:21;6.00;;;2.72;;
75687;SDS011;64300;45.034;38.910;2023-03-09T13:53:25;5.50;;;2.78;;
75687;SDS011;64300;45.034;38.910;2023-03-09T13:56:02;8.05;;;3.05;;
75687;SDS011;64300;45.034;38.910;2023-03-09T13:58:43;6.55;;;2.80;;
75687;SDS011;64300;45.034;38.910;2023-03-09T14:01:20;6.05;;;2.95;;
75687;SDS011;64300;45.034;38.910;2023-03-09T14:03:50;7.55;;;3.15;;
75687;SDS011;64300;45.034;38.910;2023-03-09T14:08:55;7.05;;;3.22;;
75687;SDS011;64300;45.034;38.910;2023-03-09T14:11:47;8.10;;;2.85;;
75687;SDS011;64300;45.034;38.910;2023-03-09T14:14:22;5.47;;;3.00;;
75687;SDS011;64300;45.034;38.910;2023-03-09T14:16:50;7.43;;;3.20;;
75687;SDS011;64300;45.034;38.910;2023-03-09T14:19:23;10.77;;;2.97;;
75687;SDS011;64300;45.034;38.910;2023-03-09T14:21:51;6.28;;;3.40;;
75687;SDS011;64300;45.034;38.910;2023-03-09T14:24:23;9.25;;;3.08;;
75687;SDS011;64300;45.034;38.910;2023-03-09T14:29:53;5.28;;;2.97;;
75687;SDS011;64300;45.034;38.910;2023-03-09T14:32:29;9.82;;;3.95;;
75687;SDS011;64300;45.034;38.910;2023-03-09T14:34:57;8.73;;;3.55;;
75687;SDS011;64300;45.034;38.910;2023-03-09T14:37:49;7.50;;;3.50;;
75687;SDS011;64300;45.034;38.910;2023-03-09T14:40:23;8.25;;;3.55;;
75687;SDS011;64300;45.034;38.910;2023-03-09T14:42:53;10.98;;;3.88;;
75687;SDS011;64300;45.034;38.910;2023-03-09T14:45:21;9.30;;;3.75;;
75687;SDS011;64300;45.034;38.910;2023-03-09T14:47:51;10.75;;;3.60;;
75687;SDS011;64300;45.034;38.910;2023-03-09T14:50:24;7.65;;;4.10;;
75687;SDS011;64300;45.034;38.910;2023-03-09T14:52:50;11.18;;;4.30;;
75687;SDS011;64300;45.034;38.910;2023-03-09T14:55:18;8.15;;;4.05;;
75687;SDS011;64300;45.034;38.910;2023-03-09T14:57:46;7.35;;;3.67;;
75687;SDS011;64300;45.034;38.910;2023-03-09T15:00:17;7.30;;;4.30;;
75687;SDS011;64300;45.034;38.910;2023-03-09T15:02:45;7.75;;;3.42;;
75687;SDS011;64300;45.034;38.910;2023-03-09T15:05:17;14.20;;;3.60;;
75687;SDS011;64300;45.034;38.910;2023-03-09T15:07:45;6.60;;;3.35;;
75687;SDS011;64300;45.034;38.910;2023-03-09T15:10:11;8.80;;;3.55;;
75687;SDS011;64300;45.034;38.910;2023-03-09T15:12:38;7.47;;;3.58;;
75687;SDS011;64300;45.034;38.910;2023-03-09T15:15:19;7.25;;;3.17;;
75687;SDS011;64300;45.034;38.910;2023-03-09T15:17:51;8.88;;;3.20;;
75687;SDS011;64300;45.034;38.910;2023-03-09T15:20:19;7.00;;;2.92;;
75687;SDS011;64300;45.034;38.910;2023-03-09T15:22:46;6.80;;;3.25;;
75687;SDS011;64300;45.034;38.910;2023-03-09T15:25:14;8.82;;;3.50;;
75687;SDS011;64300;45.034;38.910;2023-03-09T15:27:45;5.30;;;2.90;;
75687;SDS011;64300;45.034;38.910;2023-03-09T15:30:12;7.13;;;3.28;;
75687;SDS011;64300;45.034;38.910;2023-03-09T15:32:40;7.88;;;3.55;;
75687;SDS011;64300;45.034;38.910;2023-03-09T15:35:07;6.60;;;3.40;;
75687;SDS011;64300;45.034;38.910;2023-03-09T15:37:36;9.70;;;3.55;;
75687;SDS011;64300;45.034;38.910;2023-03-09T15:40:05;8.45;;;3.30;;
75687;SDS011;64300;45.034;38.910;2023-03-09T15:42:32;7.25;;;3.35;;
75687;SDS011;64300;45.034;38.910;2023-03-09T15:44:58;9.77;;;3.70;;
75687;SDS011;64300;45.034;38.910;2023-03-09T15:47:24;8.13;;;3.20;;
75687;SDS011;64300;45.034;38.910;2023-03-09T15:49:50;11.10;;;3.58;;
75687;SDS011;64300;45.034;38.910;2023-03-09T15:52:16;7.95;;;3.53;;
75687;SDS011;64300;45.034;38.910;2023-03-09T15:54:42;9.10;;;3.40;;
75687;SDS011;64300;45.034;38.910;2023-03-09T15:57:08;8.60;;;3.35;;
75687;SDS011;64300;45.034;38.910;2023-03-09T15:59:34;6.68;;;2.83;;
75687;SDS011;64300;45.034;38.910;2023-03-09T16:02:00;10.27;;;2.97;;
75687;SDS011;64300;45.034;38.910;2023-03-09T16:04:26;8.20;;;2.83;;
75687;SDS011;64300;45.034;38.910;2023-03-09T16:06:55;9.20;;;3.03;;
75687;SDS011;64300;45.034;38.910;2023-03-09T16:09:21;7.78;;;3.22;;
75687;SDS011;64300;45.034;38.910;2023-03-09T16:11:48;7.68;;;3.17;;
75687;SDS011;64300;45.034;38.910;2023-03-09T16:14:14;9.73;;;3.42;;
75687;SDS011;64300;45.034;38.910;2023-03-09T16:16:40;6.82;;;3.42;;
75687;SDS011;64300;45.034;38.910;2023-03-09T16:19:06;12.43;;;3.75;;
75687;SDS011;64300;45.034;38.910;2023-03-09T16:21:35;10.20;;;4.40;;
75687;SDS011;64300;45.034;38.910;2023-03-09T16:24:01;15.98;;;4.88;;
75687;SDS011;64300;45.034;38.910;2023-03-09T16:26:27;15.30;;;5.25;;
75687;SDS011;64300;45.034;38.910;2023-03-09T16:28:52;16.05;;;5.90;;